Flexeiras, Brazil
Current Conditions -  °F | °C
As of 1:00 AM on Monday 29 Dec 2014 (Local Time) from SBMO Reporting Station
Broken Clouds Broken Clouds  
Wind Chill: 75°   Ceiling: 2000
Heat Index: 75°   Visibility: 6mi
Dew Point: 70°   Wind: 3mph
Humidity: 83%   Direction: 100°E
Pressure: 29.91"   Gusts: NA
Location:  9.2°S, 35.78°W
Report Text: SBMO 290400Z 10003KT 9999 BKN020 24/21 Q1013
Loading
Personal Weather Stations






























Interactive Weather Map New forecast layout! Learn more

10-Day Weather Forecast

Advertisements
Track Severe Weather on mobile